createdAt,value
2018-01-19T00:00:40.326Z,1.80
2018-01-19T00:03:08.671Z,1.80
2018-01-19T00:05:36.210Z,1.70
2018-01-19T00:08:03.730Z,1.80
2018-01-19T00:10:31.310Z,1.80
2018-01-19T00:12:59.598Z,1.80
2018-01-19T00:15:27.898Z,1.80
2018-01-19T00:17:56.229Z,1.90
2018-01-19T00:20:23.763Z,1.80
2018-01-19T00:22:52.046Z,1.90
2018-01-19T00:25:20.375Z,1.90
2018-01-19T00:27:47.914Z,1.90
2018-01-19T00:30:15.466Z,1.90
2018-01-19T00:32:43.813Z,1.80
2018-01-19T00:35:11.353Z,1.80
2018-01-19T00:37:38.883Z,1.80
2018-01-19T00:40:06.454Z,1.70
2018-01-19T00:42:33.997Z,1.70
2018-01-19T00:45:01.514Z,1.60
2018-01-19T00:47:29.852Z,1.60
2018-01-19T00:49:57.382Z,1.60
2018-01-19T00:52:25.670Z,1.50
2018-01-19T00:54:53.998Z,1.60
2018-01-19T00:57:21.521Z,1.50
2018-01-19T00:59:49.852Z,1.60
2018-01-19T01:02:17.432Z,1.60
2018-01-19T01:04:44.982Z,1.70
2018-01-19T01:07:12.510Z,1.70
2018-01-19T01:09:40.836Z,1.80
2018-01-19T01:12:08.362Z,1.80
2018-01-19T01:14:35.898Z,1.80
2018-01-19T01:17:03.471Z,1.80
2018-01-19T01:19:31.001Z,1.90
2018-01-19T01:21:58.542Z,1.90
2018-01-19T01:24:26.118Z,1.90
2018-01-19T01:26:54.410Z,1.90
2018-01-19T01:29:21.934Z,1.90
2018-01-19T01:31:49.508Z,1.90
2018-01-19T01:34:17.043Z,1.90
2018-01-19T01:36:45.338Z,2.00
2018-01-19T01:39:13.661Z,2.00
2018-01-19T01:41:41.196Z,2.00
2018-01-19T01:44:09.494Z,2.00
2018-01-19T01:46:37.074Z,2.00
2018-01-19T01:49:11.514Z,2.00
2018-01-19T01:51:39.097Z,2.00
2018-01-19T01:54:06.631Z,2.00
2018-01-19T01:56:34.923Z,2.10
2018-01-19T01:59:02.495Z,2.00
2018-01-19T02:01:30.028Z,2.10
2018-01-19T02:03:57.547Z,2.10
2018-01-19T02:06:25.116Z,2.10
2018-01-19T02:08:52.641Z,2.10
2018-01-19T02:11:20.167Z,2.10
2018-01-19T02:13:47.734Z,2.20
2018-01-19T02:16:15.255Z,2.20
2018-01-19T02:18:43.551Z,2.20
2018-01-19T02:21:11.131Z,2.10
2018-01-19T02:23:39.562Z,2.20
2018-01-19T02:26:07.088Z,2.20
2018-01-19T02:28:34.658Z,2.20
2018-01-19T02:31:02.191Z,2.10
2018-01-19T02:33:29.718Z,2.10
2018-01-19T02:35:58.058Z,2.10
2018-01-19T02:38:25.657Z,2.10
2018-01-19T02:40:53.234Z,2.10
2018-01-19T02:43:21.570Z,2.10
2018-01-19T02:45:49.103Z,2.10
2018-01-19T02:48:17.398Z,2.20
2018-01-19T02:50:45.735Z,2.20
2018-01-19T02:53:13.290Z,2.20
2018-01-19T02:55:40.831Z,2.20
2018-01-19T02:58:08.401Z,2.20
2018-01-19T03:00:36.699Z,2.20
2018-01-19T03:03:04.226Z,2.20
2018-01-19T03:05:32.563Z,2.20
2018-01-19T03:08:00.093Z,2.20
2018-01-19T03:10:27.619Z,2.20
2018-01-19T03:12:55.190Z,2.20
2018-01-19T03:15:22.724Z,2.20
2018-01-19T03:17:51.015Z,2.20
2018-01-19T03:20:19.543Z,2.20
2018-01-19T03:22:47.078Z,2.20
2018-01-19T03:25:14.627Z,2.10
2018-01-19T03:27:42.208Z,2.10
2018-01-19T03:30:10.516Z,2.10
2018-01-19T03:32:38.564Z,2.10
2018-01-19T03:35:06.144Z,2.20
2018-01-19T03:37:33.686Z,2.20
2018-01-19T03:40:01.206Z,2.20
2018-01-19T03:42:29.539Z,2.20
2018-01-19T03:44:57.080Z,2.20
2018-01-19T03:47:24.611Z,2.20
2018-01-19T03:49:52.221Z,2.20
2018-01-19T03:52:19.754Z,2.20
2018-01-19T03:54:47.282Z,2.20
2018-01-19T03:57:14.921Z,2.10
2018-01-19T03:59:43.218Z,2.10
2018-01-19T04:02:10.750Z,2.10
2018-01-19T04:04:38.334Z,2.20
2018-01-19T04:07:05.864Z,2.20
2018-01-19T04:09:33.396Z,2.20
2018-01-19T04:12:01.726Z,2.20
2018-01-19T04:14:29.259Z,2.20
2018-01-19T04:16:56.787Z,2.20
2018-01-19T04:19:24.358Z,2.20
2018-01-19T04:21:51.891Z,2.10
2018-01-19T04:24:19.426Z,2.10
2018-01-19T04:26:47.754Z,2.10
2018-01-19T04:29:15.279Z,2.00
2018-01-19T04:31:43.575Z,2.00
2018-01-19T04:34:11.915Z,2.00
2018-01-19T04:36:39.443Z,1.90
2018-01-19T04:39:07.734Z,1.90
2018-01-19T04:41:36.074Z,1.90
2018-01-19T04:44:03.608Z,1.90
2018-01-19T04:46:31.153Z,1.90
2018-01-19T04:48:59.507Z,1.80
2018-01-19T04:51:27.048Z,1.80
2018-01-19T04:53:54.587Z,1.80
2018-01-19T04:56:22.947Z,1.80
2018-01-19T04:58:50.534Z,1.80
2018-01-19T05:01:18.070Z,1.80
2018-01-19T05:03:45.654Z,1.80
2018-01-19T05:06:13.222Z,1.90
2018-01-19T05:08:40.731Z,1.90
2018-01-19T05:11:09.067Z,1.90
2018-01-19T05:13:36.600Z,1.90
2018-01-19T05:16:04.907Z,1.90
2018-01-19T05:18:32.475Z,1.90
2018-01-19T05:21:00.016Z,1.90
2018-01-19T05:23:28.326Z,1.90
2018-01-19T05:25:55.960Z,1.90
2018-01-19T05:28:23.497Z,1.90
2018-01-19T05:30:51.057Z,1.90
2018-01-19T05:33:18.635Z,2.00
2018-01-19T05:35:46.171Z,2.00
2018-01-19T05:38:13.695Z,2.00
2018-01-19T05:40:41.263Z,2.00
2018-01-19T05:43:08.795Z,2.00
2018-01-19T05:45:37.094Z,2.00
2018-01-19T05:48:04.694Z,2.00
2018-01-19T05:50:32.262Z,2.00
2018-01-19T05:52:59.801Z,2.00
2018-01-19T05:55:28.139Z,2.00
2018-01-19T05:57:55.784Z,2.00
2018-01-19T06:00:23.315Z,2.00
2018-01-19T06:02:50.879Z,2.00
2018-01-19T06:05:18.410Z,1.90
2018-01-19T06:07:45.956Z,1.90
2018-01-19T06:10:13.534Z,1.90
2018-01-19T06:12:41.072Z,1.90
2018-01-19T06:15:08.761Z,1.90
2018-01-19T06:17:37.272Z,1.90
2018-01-19T06:20:04.800Z,1.80
2018-01-19T06:22:32.363Z,1.80
2018-01-19T06:24:59.967Z,1.80
2018-01-19T06:27:28.263Z,1.80
2018-01-19T06:29:55.852Z,1.80
2018-01-19T06:32:23.466Z,1.80
2018-01-19T06:34:51.027Z,1.90
2018-01-19T06:37:18.621Z,1.90
2018-01-19T06:39:46.194Z,1.80
2018-01-19T06:42:13.911Z,1.80
2018-01-19T06:44:42.303Z,1.80
2018-01-19T06:47:09.934Z,1.70
2018-01-19T06:49:37.467Z,1.70
2018-01-19T06:52:05.036Z,1.80
2018-01-19T06:54:32.611Z,1.70
2018-01-19T06:57:00.205Z,1.70
2018-01-19T06:59:27.783Z,1.70
2018-01-19T07:01:55.355Z,1.60
2018-01-19T07:04:22.950Z,1.50
2018-01-19T07:06:51.246Z,1.60
2018-01-19T07:09:18.849Z,1.60
2018-01-19T07:11:46.423Z,1.60
2018-01-19T07:14:13.950Z,1.70
2018-01-19T07:16:42.320Z,1.80
2018-01-19T07:19:09.862Z,1.80
2018-01-19T07:21:37.390Z,1.80
2018-01-19T07:24:05.730Z,1.80
2018-01-19T07:26:33.260Z,1.80
2018-01-19T07:29:05.177Z,1.90
2018-01-19T07:31:33.059Z,1.90
2018-01-19T07:34:00.607Z,1.90
2018-01-19T07:36:28.143Z,2.00
2018-01-19T07:38:56.512Z,1.90
2018-01-19T07:41:24.098Z,1.90
2018-01-19T07:43:52.462Z,1.90
2018-01-19T07:46:20.035Z,1.90
2018-01-19T07:48:47.572Z,1.90
2018-01-19T07:51:15.098Z,1.90
2018-01-19T07:53:43.439Z,1.90
2018-01-19T07:56:10.980Z,1.90
2018-01-19T07:58:38.510Z,1.90
2018-01-19T08:01:06.842Z,2.00
2018-01-19T08:03:34.366Z,1.90
2018-01-19T08:06:01.894Z,1.90
2018-01-19T08:08:29.463Z,1.90
2018-01-19T08:10:56.996Z,1.90
2018-01-19T08:13:25.290Z,1.90
2018-01-19T08:15:53.628Z,2.00
2018-01-19T08:18:21.182Z,1.90
2018-01-19T08:20:48.719Z,2.00
2018-01-19T08:23:17.063Z,2.00
2018-01-19T08:25:44.603Z,2.00
2018-01-19T08:28:12.165Z,2.00
2018-01-19T08:30:39.735Z,2.00
2018-01-19T08:33:07.271Z,2.00
2018-01-19T08:35:36.306Z,2.00
2018-01-19T08:38:04.713Z,2.00
2018-01-19T08:40:32.254Z,2.00
2018-01-19T08:43:00.546Z,2.00
2018-01-19T08:45:28.882Z,2.10
2018-01-19T08:47:56.410Z,2.10
2018-01-19T08:50:24.703Z,2.10
2018-01-19T08:52:53.112Z,2.20
2018-01-19T08:55:20.651Z,2.20
2018-01-19T08:57:48.950Z,2.30
2018-01-19T09:00:17.291Z,2.30
2018-01-19T09:02:44.828Z,2.30
2018-01-19T09:05:12.363Z,2.20
2018-01-19T09:07:39.943Z,2.20
2018-01-19T09:10:08.255Z,2.10
2018-01-19T09:12:35.810Z,2.10
2018-01-19T09:15:04.176Z,2.10
2018-01-19T09:17:32.443Z,2.10
2018-01-19T09:19:59.978Z,2.10
2018-01-19T09:22:27.565Z,2.10
2018-01-19T09:24:55.096Z,2.10
2018-01-19T09:27:23.512Z,2.20
2018-01-19T09:29:51.091Z,2.20
2018-01-19T09:32:18.646Z,2.30
2018-01-19T09:34:46.186Z,2.40
2018-01-19T09:37:13.811Z,2.40
2018-01-19T09:39:41.342Z,2.40
2018-01-19T09:42:09.646Z,2.50
2018-01-19T09:44:38.011Z,2.50
2018-01-19T09:47:05.550Z,2.50
2018-01-19T09:49:33.078Z,2.60
2018-01-19T09:52:00.664Z,2.60
2018-01-19T09:54:28.223Z,2.60
2018-01-19T09:56:55.769Z,2.60
2018-01-19T09:59:23.334Z,2.60
2018-01-19T10:01:50.869Z,2.70
2018-01-19T10:04:18.402Z,2.70
2018-01-19T10:06:46.739Z,2.70
2018-01-19T10:09:14.271Z,2.60
2018-01-19T10:11:41.822Z,2.60
2018-01-19T10:14:09.416Z,2.60
2018-01-19T10:16:36.942Z,2.60
2018-01-19T10:19:04.470Z,2.60
2018-01-19T10:21:32.055Z,2.60
2018-01-19T10:23:59.582Z,2.60
2018-01-19T10:26:27.884Z,2.60
2018-01-19T10:28:55.458Z,2.50
2018-01-19T10:31:22.986Z,2.50
2018-01-19T10:33:50.516Z,2.60
2018-01-19T10:36:18.111Z,2.60
2018-01-19T10:38:45.747Z,2.60
2018-01-19T10:41:13.287Z,2.60
2018-01-19T10:43:41.640Z,2.60
2018-01-19T10:46:09.214Z,2.60
2018-01-19T10:48:36.849Z,2.70
2018-01-19T10:51:04.442Z,2.70
2018-01-19T10:53:31.998Z,2.60
2018-01-19T10:55:59.526Z,2.60
2018-01-19T10:58:27.862Z,2.50
2018-01-19T11:00:55.421Z,2.50
2018-01-19T11:03:22.971Z,2.60
2018-01-19T11:05:51.310Z,2.60
2018-01-19T11:08:18.889Z,2.60
2018-01-19T11:10:46.435Z,2.70
2018-01-19T11:13:14.008Z,2.70
2018-01-19T11:15:41.544Z,2.60
2018-01-19T11:18:09.843Z,2.70
2018-01-19T11:20:38.195Z,2.70
2018-01-19T11:23:05.739Z,2.70
2018-01-19T11:25:33.264Z,2.70
2018-01-19T11:28:01.607Z,2.60
2018-01-19T11:30:29.135Z,2.60
2018-01-19T11:32:57.646Z,2.80
2018-01-19T11:35:25.249Z,2.80
2018-01-19T11:37:52.818Z,2.80
2018-01-19T11:40:20.355Z,2.80
2018-01-19T11:42:47.943Z,2.70
2018-01-19T11:45:15.492Z,2.70
2018-01-19T11:47:43.031Z,2.70
2018-01-19T11:50:10.614Z,2.70
2018-01-19T11:52:38.920Z,2.70
2018-01-19T11:55:06.454Z,2.70
2018-01-19T11:57:34.027Z,2.70
2018-01-19T12:00:01.564Z,2.70
2018-01-19T12:02:29.100Z,2.70
2018-01-19T12:04:56.680Z,2.70
2018-01-19T12:07:24.205Z,2.70
2018-01-19T12:09:51.747Z,2.80
2018-01-19T12:12:19.320Z,2.70
2018-01-19T12:14:46.971Z,2.70
2018-01-19T12:17:15.406Z,2.70
2018-01-19T12:19:42.974Z,2.70
2018-01-19T12:22:10.518Z,2.70
2018-01-19T12:24:38.056Z,2.70
2018-01-19T12:27:06.394Z,2.70
2018-01-19T12:29:33.947Z,2.60
2018-01-19T12:32:01.488Z,2.70
2018-01-19T12:34:29.836Z,2.80
2018-01-19T12:36:57.387Z,2.70
2018-01-19T12:39:24.931Z,2.80
2018-01-19T12:41:52.512Z,2.80
2018-01-19T12:44:20.051Z,2.80
2018-01-19T12:46:48.353Z,2.80
2018-01-19T12:49:16.708Z,2.80
2018-01-19T12:51:44.242Z,2.80
2018-01-19T12:54:11.925Z,2.80
2018-01-19T12:56:39.554Z,2.80
2018-01-19T12:59:07.852Z,2.80
2018-01-19T13:01:36.145Z,2.80
2018-01-19T13:04:03.734Z,2.80
2018-01-19T13:06:31.294Z,2.80
2018-01-19T13:08:58.852Z,2.80
2018-01-19T13:11:27.198Z,2.90
2018-01-19T13:13:54.935Z,2.80
2018-01-19T13:16:22.562Z,2.90
2018-01-19T13:18:50.146Z,2.90
2018-01-19T13:21:18.443Z,2.90
2018-01-19T13:23:46.741Z,2.90
2018-01-19T13:26:15.078Z,2.90
2018-01-19T13:28:42.625Z,2.90
2018-01-19T13:31:10.169Z,2.90
2018-01-19T13:33:38.503Z,2.90
2018-01-19T13:36:06.251Z,2.90
2018-01-19T13:38:33.825Z,2.90
2018-01-19T13:41:01.420Z,3.00
2018-01-19T13:43:28.954Z,3.10
2018-01-19T13:45:56.487Z,3.30
2018-01-19T13:48:24.536Z,3.50
2018-01-19T13:50:52.074Z,3.40
2018-01-19T13:53:20.477Z,3.40
2018-01-19T13:55:48.081Z,3.30
2018-01-19T13:58:15.952Z,3.30
2018-01-19T14:00:43.491Z,3.20
2018-01-19T14:03:11.074Z,3.20
2018-01-19T14:05:38.614Z,3.10
2018-01-19T14:08:06.919Z,3.10
2018-01-19T14:10:34.770Z,3.10
2018-01-19T14:13:02.314Z,3.00
2018-01-19T14:15:29.847Z,3.00
2018-01-19T14:17:57.427Z,3.00
2018-01-19T14:20:24.958Z,3.00
2018-01-19T14:22:52.768Z,3.00
2018-01-19T14:25:20.455Z,3.00
2018-01-19T14:27:48.116Z,3.00
2018-01-19T14:30:16.635Z,3.00
2018-01-19T14:32:44.223Z,3.00
2018-01-19T14:35:11.764Z,3.00
2018-01-19T14:37:39.309Z,3.00
2018-01-19T14:40:07.651Z,3.00
2018-01-19T14:42:35.178Z,3.00
2018-01-19T14:45:02.971Z,3.00
2018-01-19T14:47:30.571Z,3.00
2018-01-19T14:49:58.104Z,3.00
2018-01-19T14:52:25.651Z,3.00
2018-01-19T14:54:53.991Z,3.30
2018-01-19T14:57:21.588Z,3.30
2018-01-19T14:59:49.132Z,3.40
2018-01-19T15:02:16.718Z,3.50
2018-01-19T15:04:44.250Z,3.60
2018-01-19T15:07:13.778Z,3.50
2018-01-19T15:09:41.354Z,3.50
2018-01-19T15:12:08.895Z,3.40
2018-01-19T15:14:36.454Z,3.40
2018-01-19T15:17:04.797Z,3.30
2018-01-19T15:19:32.427Z,3.30
2018-01-19T15:21:59.979Z,3.20
2018-01-19T15:24:28.328Z,3.20
2018-01-19T15:26:56.380Z,3.20
2018-01-19T15:29:24.059Z,3.20
2018-01-19T15:31:51.674Z,3.20
2018-01-19T15:34:21.012Z,3.20
2018-01-19T15:36:49.319Z,3.20
2018-01-19T15:39:16.946Z,3.20
2018-01-19T15:41:44.491Z,3.20
2018-01-19T15:44:12.049Z,3.20
2018-01-19T15:46:39.750Z,3.10
2018-01-19T15:49:07.391Z,3.00
2018-01-19T15:51:34.923Z,3.10
2018-01-19T15:54:02.530Z,3.10
2018-01-19T15:56:30.068Z,3.20
2018-01-19T15:58:57.656Z,3.20
2018-01-19T16:01:25.988Z,3.20
2018-01-19T16:03:53.518Z,3.20
2018-01-19T16:06:21.815Z,3.30
2018-01-19T16:08:49.410Z,3.20
2018-01-19T16:11:16.943Z,3.20
2018-01-19T16:13:45.275Z,3.10
2018-01-19T16:16:12.854Z,3.10
2018-01-19T16:18:40.392Z,3.20
2018-01-19T16:21:07.923Z,3.20
2018-01-19T16:23:35.509Z,3.20
2018-01-19T16:26:03.039Z,3.20
2018-01-19T16:28:30.703Z,3.20
2018-01-19T16:30:58.280Z,3.20
2018-01-19T16:33:25.832Z,3.20
2018-01-19T16:35:53.364Z,3.20
2018-01-19T16:38:20.969Z,3.20
2018-01-19T16:40:48.596Z,3.20
2018-01-19T16:43:16.137Z,3.20
2018-01-19T16:45:43.778Z,3.30
2018-01-19T16:48:11.363Z,3.30
2018-01-19T16:50:38.954Z,3.30
2018-01-19T16:53:06.561Z,3.20
2018-01-19T16:55:34.974Z,3.20
2018-01-19T16:58:03.283Z,3.20
2018-01-19T17:00:30.896Z,3.20
2018-01-19T17:02:58.443Z,3.20
2018-01-19T17:05:26.076Z,3.20
2018-01-19T17:07:54.424Z,3.30
2018-01-19T17:10:22.039Z,3.20
2018-01-19T17:12:50.341Z,3.30
2018-01-19T17:15:17.915Z,3.30
2018-01-19T17:17:45.478Z,3.30
2018-01-19T17:20:13.422Z,3.30
2018-01-19T17:22:41.799Z,3.30
2018-01-19T17:25:09.370Z,3.30
2018-01-19T17:27:36.912Z,3.30
2018-01-19T17:30:04.486Z,3.30
2018-01-19T17:32:32.109Z,3.30
2018-01-19T17:35:00.460Z,3.60
2018-01-19T17:37:28.035Z,3.60
2018-01-19T17:39:56.052Z,3.60
2018-01-19T17:42:23.775Z,3.60
2018-01-19T17:44:51.370Z,3.60
2018-01-19T17:47:20.264Z,3.60
2018-01-19T17:49:48.042Z,3.70
2018-01-19T17:52:15.728Z,3.70
2018-01-19T17:54:43.300Z,3.70
2018-01-19T17:57:11.656Z,3.80
2018-01-19T17:59:39.246Z,3.80
2018-01-19T18:02:07.008Z,3.90
2018-01-19T18:04:35.042Z,3.90
2018-01-19T18:07:02.683Z,3.90
2018-01-19T18:09:30.263Z,4.00
2018-01-19T18:11:57.803Z,4.00
2018-01-19T18:14:25.410Z,4.00
2018-01-19T18:16:53.094Z,4.00
2018-01-19T18:19:20.856Z,4.00
2018-01-19T18:21:48.796Z,4.00
2018-01-19T18:24:16.412Z,4.00
2018-01-19T18:26:44.472Z,4.10
2018-01-19T18:29:12.108Z,4.10
2018-01-19T18:31:40.416Z,4.00
2018-01-19T18:34:07.961Z,3.90
2018-01-19T18:36:36.395Z,3.90
2018-01-19T18:39:03.968Z,3.80
2018-01-19T18:41:31.598Z,3.80
2018-01-19T18:44:00.016Z,3.60
2018-01-19T18:46:28.580Z,3.60
2018-01-19T18:48:56.907Z,3.50
2018-01-19T18:51:24.725Z,3.50
2018-01-19T18:53:52.449Z,3.50
2018-01-19T18:56:19.983Z,3.50
2018-01-19T18:58:48.276Z,3.50
2018-01-19T19:01:16.157Z,3.40
2018-01-19T19:03:44.577Z,3.40
2018-01-19T19:06:12.182Z,3.40
2018-01-19T19:08:40.816Z,3.30
2018-01-19T19:11:09.640Z,3.30
2018-01-19T19:13:37.515Z,3.30
2018-01-19T19:16:07.192Z,3.20
2018-01-19T19:18:34.828Z,3.20
2018-01-19T19:21:02.663Z,3.20
2018-01-19T19:23:31.808Z,3.10
2018-01-19T19:25:59.416Z,3.10
2018-01-19T19:28:27.007Z,3.10
2018-01-19T19:30:54.534Z,3.10
2018-01-19T19:33:22.090Z,3.00
2018-01-19T19:35:49.685Z,3.00
2018-01-19T19:38:17.242Z,3.00
2018-01-19T19:40:44.807Z,3.00
2018-01-19T19:43:12.445Z,3.00
2018-01-19T19:45:40.239Z,3.00
2018-01-19T19:48:08.334Z,3.10
2018-01-19T19:50:35.908Z,3.10
2018-01-19T19:53:03.472Z,3.10
2018-01-19T19:55:31.879Z,3.10
2018-01-19T19:57:59.574Z,3.00
2018-01-19T20:00:27.119Z,3.00
2018-01-19T20:02:54.659Z,3.00
2018-01-19T20:05:23.023Z,3.00
2018-01-19T20:07:50.596Z,3.00
2018-01-19T20:10:18.127Z,2.90
2018-01-19T20:12:45.770Z,2.90
2018-01-19T20:15:14.510Z,2.80
2018-01-19T20:17:42.066Z,2.80
2018-01-19T20:20:09.642Z,2.90
2018-01-19T20:22:37.198Z,2.80
2018-01-19T20:25:05.495Z,2.70
2018-01-19T20:27:34.886Z,2.60
2018-01-19T20:30:02.456Z,2.60
2018-01-19T20:32:30.794Z,2.70
2018-01-19T20:34:58.444Z,2.60
2018-01-19T20:37:25.988Z,2.60
2018-01-19T20:39:54.406Z,2.60
2018-01-19T20:42:22.934Z,2.70
2018-01-19T20:44:50.480Z,2.60
2018-01-19T20:47:18.039Z,2.70
2018-01-19T20:49:46.017Z,2.70
2018-01-19T20:52:13.603Z,2.60
2018-01-19T20:54:41.134Z,2.60
2018-01-19T20:57:08.706Z,2.50
2018-01-19T20:59:36.230Z,2.40
2018-01-19T21:02:03.754Z,2.40
2018-01-19T21:04:32.092Z,2.30
2018-01-19T21:06:59.640Z,2.30
2018-01-19T21:09:27.190Z,2.30
2018-01-19T21:11:55.618Z,2.30
2018-01-19T21:14:23.171Z,2.30
2018-01-19T21:16:50.819Z,2.30
2018-01-19T21:19:18.407Z,2.20
2018-01-19T21:21:46.034Z,2.20
2018-01-19T21:24:13.575Z,2.30
2018-01-19T21:26:41.352Z,2.30
2018-01-19T21:29:08.879Z,2.30
2018-01-19T21:31:37.215Z,2.30
2018-01-19T21:34:04.820Z,2.30
2018-01-19T21:36:32.344Z,2.40
2018-01-19T21:38:59.874Z,2.40
2018-01-19T21:41:27.449Z,2.30
2018-01-19T21:43:55.743Z,2.30
2018-01-19T21:46:24.379Z,2.20
2018-01-19T21:48:51.975Z,2.20
2018-01-19T21:51:19.511Z,2.20
2018-01-19T21:53:47.043Z,2.20
2018-01-19T21:56:14.660Z,2.10
2018-01-19T21:58:42.194Z,2.10
2018-01-19T22:01:10.495Z,2.00
2018-01-19T22:03:38.069Z,2.00
2018-01-19T22:06:05.608Z,2.00
2018-01-19T22:08:33.151Z,2.00
2018-01-19T22:11:00.751Z,2.00
2018-01-19T22:13:28.290Z,2.00
2018-01-19T22:15:55.916Z,2.00
2018-01-19T22:18:24.267Z,2.00
2018-01-19T22:20:51.796Z,1.90
2018-01-19T22:23:19.327Z,2.00
2018-01-19T22:25:47.143Z,1.90
2018-01-19T22:28:14.679Z,2.00
2018-01-19T22:30:42.207Z,1.90
2018-01-19T22:33:09.799Z,1.90
2018-01-19T22:35:37.330Z,1.90
2018-01-19T22:38:04.867Z,1.80
2018-01-19T22:40:32.597Z,1.90
2018-01-19T22:43:00.136Z,1.80
2018-01-19T22:45:27.698Z,1.80
2018-01-19T22:47:56.031Z,1.90
2018-01-19T22:50:23.575Z,1.90
2018-01-19T22:52:51.113Z,1.90
2018-01-19T22:55:19.469Z,2.00
2018-01-19T22:57:47.107Z,2.00
2018-01-19T23:00:20.603Z,2.00
2018-01-19T23:02:48.150Z,2.00
2018-01-19T23:05:15.687Z,2.10
2018-01-19T23:07:43.282Z,2.10
2018-01-19T23:10:11.585Z,2.10
2018-01-19T23:12:39.126Z,2.10
2018-01-19T23:15:06.891Z,2.10
2018-01-19T23:17:34.456Z,2.10
2018-01-19T23:20:01.990Z,2.10
2018-01-19T23:22:30.382Z,2.10
2018-01-19T23:24:58.704Z,2.10
2018-01-19T23:27:26.234Z,2.10
2018-01-19T23:29:54.587Z,2.10
2018-01-19T23:32:22.115Z,2.10
2018-01-19T23:34:49.643Z,2.10
2018-01-19T23:37:17.285Z,2.10
2018-01-19T23:39:44.865Z,2.00
2018-01-19T23:42:12.406Z,2.00
2018-01-19T23:44:39.990Z,2.10
2018-01-19T23:47:07.530Z,2.10
2018-01-19T23:49:35.835Z,2.10
2018-01-19T23:52:03.429Z,2.10
2018-01-19T23:54:30.995Z,2.10
2018-01-19T23:56:58.572Z,2.10
2018-01-19T23:59:26.154Z,2.10
